Caribbean Sea — PHNU — position and weather

sailwx.info

Track history (hours):
 
Tides and Currents Weather Stations Pressure Air Temp Water Temp Dewpoint Dewpoint Depression Visibility Wind Speed Wind Dir Waves Ship Positions

Caribbean Sea

Last reported at 2015-Jan-30 03:21 UTC. Time now 2015-Jan-30 12:27 UTC.
Position N 19°14' W 095°41'.

Length 183 m; draft 8.3 m.

Type: Ship (hazmat cat A). MMSI: 244523000.

Date/timePositionNaut miles runAvg speedWind from/ knotsBaromVisibWave heightAir tempDewpointWater temp
2015-Jan-30 03:21N 19°14' W 095°41'1417.2
2015-Jan-30 02:34N 19°12' W 095°55'1212.4
2015-Jan-30 01:34N 19°12' W 096°08'0 0.2
2015-Jan-30 00:33N 19°12' W 096°08'0 0.0
2015-Jan-29 23:33N 19°12' W 096°08'0 0.0
2015-Jan-29 22:33N 19°12' W 096°08'0 0.0
2015-Jan-29 21:33N 19°12' W 096°08'0 0.0
2015-Jan-29 20:32N 19°12' W 096°08'0 0.0
2015-Jan-29 19:32N 19°12' W 096°08'0 0.0
2015-Jan-29 18:32N 19°12' W 096°08'0 0.0
2015-Jan-29 17:32N 19°12' W 096°08'0 0.0
2015-Jan-29 16:32N 19°12' W 096°08'0 0.0
2015-Jan-29 15:32N 19°12' W 096°08'0 0.0
2015-Jan-29 14:32N 19°12' W 096°08'0 0.0
2015-Jan-29 13:33N 19°12' W 096°08'1 0.5
2015-Jan-29 12:33N 19°12' W 096°08'7 6.7
2015-Jan-29 11:33N 19°14' W 096°01'1212.3
2015-Jan-29 10:34N 19°26' W 096°03'  
2015-Jan-27 02:33N 29°20' W 094°40'10 9.8
2015-Jan-27 01:33N 29°25' W 094°50'1212.1
2015-Jan-27 00:33N 29°35' W 094°56'1010.2
2015-Jan-26 23:33N 29°44' W 095°03'3 3.4
2015-Jan-26 22:33N 29°45' W 095°07'0 0.0
2015-Jan-26 21:33N 29°45' W 095°07'0 0.0
2015-Jan-26 20:33N 29°45' W 095°07'0 0.0
2015-Jan-26 19:33N 29°45' W 095°07'0 0.0
2015-Jan-26 18:31N 29°45' W 095°07'0 0.0
2015-Jan-26 17:31N 29°45' W 095°07'0 0.0
2015-Jan-26 16:30N 29°45' W 095°07'0 0.0
2015-Jan-26 15:33N 29°45' W 095°07'0 0.0
2015-Jan-26 14:31N 29°45' W 095°07'0 0.0
2015-Jan-26 13:28N 29°45' W 095°07'0 0.0
2015-Jan-26 12:31N 29°45' W 095°07'0 0.0
2015-Jan-26 11:31N 29°45' W 095°07'0 0.0
2015-Jan-26 10:26N 29°45' W 095°07'0 0.0
2015-Jan-26 09:32N 29°45' W 095°07'0 0.0
2015-Jan-26 08:32N 29°45' W 095°07'0 0.0
2015-Jan-26 07:32N 29°45' W 095°07'0 0.0
2015-Jan-26 06:32N 29°45' W 095°07'0 0.0
2015-Jan-26 05:32N 29°45' W 095°07'0 0.0
2015-Jan-26 04:32N 29°45' W 095°07'0 0.0
2015-Jan-26 03:27N 29°45' W 095°07'0 0.0
2015-Jan-26 02:33N 29°45' W 095°07'0 0.0
2015-Jan-26 01:33N 29°45' W 095°07'0 0.0
2015-Jan-26 00:33N 29°45' W 095°07'0 0.0
2015-Jan-25 23:31N 29°45' W 095°07'0 0.0
2015-Jan-25 22:31N 29°45' W 095°07'0 0.0
2015-Jan-25 21:28N 29°45' W 095°07'0 0.0
2015-Jan-25 20:31N 29°45' W 095°07'0 0.0
2015-Jan-25 19:28N 29°45' W 095°07'0 0.0
2015-Jan-25 18:32N 29°45' W 095°07'0 0.0
2015-Jan-25 17:32N 29°45' W 095°07'0 0.0
2015-Jan-25 16:32N 29°45' W 095°07'0 0.0
2015-Jan-25 15:21N 29°45' W 095°07'0 0.0
2015-Jan-25 14:33N 29°45' W 095°07'0 0.0
2015-Jan-25 13:33N 29°45' W 095°07'0 0.0
2015-Jan-25 12:33N 29°45' W 095°07'0 0.0
2015-Jan-25 11:33N 29°45' W 095°07'0 0.0
2015-Jan-25 10:33N 29°45' W 095°07'0 0.0
2015-Jan-25 09:33N 29°45' W 095°07'0 0.0
2015-Jan-25 08:30N 29°45' W 095°07'0 0.0
2015-Jan-25 07:24N 29°45' W 095°07'0 0.0
2015-Jan-25 06:33N 29°45' W 095°07'0 0.0
2015-Jan-25 05:27N 29°45' W 095°07'0 0.0
2015-Jan-25 04:15N 29°45' W 095°07'0 0.0
2015-Jan-25 03:33N 29°45' W 095°07'0 0.0
2015-Jan-25 02:33N 29°45' W 095°07'0 0.0
2015-Jan-25 01:27N 29°45' W 095°07'0 0.0
2015-Jan-25 00:33N 29°45' W 095°07'0 0.0
2015-Jan-24 23:33N 29°45' W 095°07'0 0.0
2015-Jan-24 22:33N 29°45' W 095°07'0 0.0
2015-Jan-24 21:33N 29°45' W 095°07'0 0.0
2015-Jan-24 20:33N 29°45' W 095°07'0 0.0
2015-Jan-24 19:31N 29°45' W 095°07'0 0.0
2015-Jan-24 18:28N 29°45' W 095°07'0 0.0
2015-Jan-24 17:30N 29°45' W 095°07'0 0.0
2015-Jan-24 16:30N 29°45' W 095°07'0 0.0
2015-Jan-24 15:27N 29°45' W 095°07'0 0.0
2015-Jan-24 14:33N 29°45' W 095°07'0 0.0
2015-Jan-24 13:33N 29°45' W 095°07'0 0.0
2015-Jan-24 12:32N 29°45' W 095°07'0 0.0
2015-Jan-24 11:32N 29°45' W 095°07'0 0.0
2015-Jan-24 10:32N 29°45' W 095°07'0 0.0
2015-Jan-24 09:19N 29°45' W 095°07'0 0.0
2015-Jan-24 08:31N 29°45' W 095°07'0 0.0
2015-Jan-24 07:34N 29°45' W 095°07'0 0.0
2015-Jan-24 06:33N 29°45' W 095°07'0 0.0
2015-Jan-24 05:33N 29°45' W 095°07'0 0.0
2015-Jan-24 04:31N 29°45' W 095°07'0 0.0
2015-Jan-24 03:31N 29°45' W 095°07'0 0.0
2015-Jan-24 02:31N 29°45' W 095°07'0 0.0
2015-Jan-24 01:31N 29°45' W 095°07'0 0.0
2015-Jan-24 00:31N 29°45' W 095°07'0 0.0
2015-Jan-23 23:28N 29°45' W 095°07'0 0.0
2015-Jan-23 22:32N 29°45' W 095°07'0 0.0
2015-Jan-23 21:32N 29°45' W 095°07'0 0.0
2015-Jan-23 20:32N 29°45' W 095°07'0 0.0
2015-Jan-23 19:25N 29°45' W 095°07'0 0.0
2015-Jan-23 18:31N 29°45' W 095°07'0 0.0
2015-Jan-23 17:25N 29°45' W 095°07'0 0.0
2015-Jan-23 16:31N 29°45' W 095°07'0 0.0
2015-Jan-23 15:31N 29°45' W 095°07'0 0.0
2015-Jan-23 14:33N 29°45' W 095°07'0 0.0
2015-Jan-23 13:33N 29°45' W 095°07'0 0.0
2015-Jan-23 12:33N 29°45' W 095°07'0 0.0
2015-Jan-23 11:33N 29°45' W 095°07'0 0.0
2015-Jan-23 10:31N 29°45' W 095°07'0 0.0
2015-Jan-23 09:31N 29°45' W 095°07'0 0.0
2015-Jan-23 08:28N 29°45' W 095°07'0 0.0
2015-Jan-23 07:25N 29°45' W 095°07'0 0.0
2015-Jan-23 06:31N 29°45' W 095°07'0 0.0
2015-Jan-23 05:32N 29°45' W 095°07'0 0.0
2015-Jan-23 04:32N 29°45' W 095°07'0 0.0
2015-Jan-23 03:32N 29°45' W 095°07'0 0.0
2015-Jan-23 02:26N 29°45' W 095°07'1 0.6
2015-Jan-23 01:33N 29°45' W 095°06'7 6.7
2015-Jan-23 00:33N 29°41' W 094°59'1211.5
2015-Jan-22 23:33N 29°31' W 094°53'1312.1
2015-Jan-22 22:29N 29°21' W 094°45'13 1.2
2015-Jan-22 11:24N 29°17' W 094°31'  
Track history (hours):
 
Tides and Currents Weather Stations Pressure Air Temp Water Temp Dewpoint Dewpoint Depression Visibility Wind Speed Wind Dir Waves Ship Positions

Caribbean Sea

Last reported at 2015-Jan-30 03:21 UTC. Time now 2015-Jan-30 12:27 UTC.
Position N 19°14' W 095°41'.

Length 183 m; draft 8.3 m.

Type: Ship (hazmat cat A). MMSI: 244523000.

Date/timePositionNaut miles runAvg speedWind from/ knotsBaromVisibWave heightAir tempDewpointWater temp
2015-Jan-30 03:21N 19°14' W 095°41'1417.2
2015-Jan-30 02:34N 19°12' W 095°55'1212.4
2015-Jan-30 01:34N 19°12' W 096°08'0 0.2
2015-Jan-30 00:33N 19°12' W 096°08'0 0.0
2015-Jan-29 23:33N 19°12' W 096°08'0 0.0
2015-Jan-29 22:33N 19°12' W 096°08'0 0.0
2015-Jan-29 21:33N 19°12' W 096°08'0 0.0
2015-Jan-29 20:32N 19°12' W 096°08'0 0.0
2015-Jan-29 19:32N 19°12' W 096°08'0 0.0
2015-Jan-29 18:32N 19°12' W 096°08'0 0.0
2015-Jan-29 17:32N 19°12' W 096°08'0 0.0
2015-Jan-29 16:32N 19°12' W 096°08'0 0.0
2015-Jan-29 15:32N 19°12' W 096°08'0 0.0
2015-Jan-29 14:32N 19°12' W 096°08'0 0.0
2015-Jan-29 13:33N 19°12' W 096°08'1 0.5
2015-Jan-29 12:33N 19°12' W 096°08'7 6.7
2015-Jan-29 11:33N 19°14' W 096°01'1212.3
2015-Jan-29 10:34N 19°26' W 096°03'  
2015-Jan-27 02:33N 29°20' W 094°40'10 9.8
2015-Jan-27 01:33N 29°25' W 094°50'1212.1
2015-Jan-27 00:33N 29°35' W 094°56'1010.2
2015-Jan-26 23:33N 29°44' W 095°03'3 3.4
2015-Jan-26 22:33N 29°45' W 095°07'0 0.0
2015-Jan-26 21:33N 29°45' W 095°07'0 0.0
2015-Jan-26 20:33N 29°45' W 095°07'0 0.0
2015-Jan-26 19:33N 29°45' W 095°07'0 0.0
2015-Jan-26 18:31N 29°45' W 095°07'0 0.0
2015-Jan-26 17:31N 29°45' W 095°07'0 0.0
2015-Jan-26 16:30N 29°45' W 095°07'0 0.0
2015-Jan-26 15:33N 29°45' W 095°07'0 0.0
2015-Jan-26 14:31N 29°45' W 095°07'0 0.0
2015-Jan-26 13:28N 29°45' W 095°07'0 0.0
2015-Jan-26 12:31N 29°45' W 095°07'0 0.0
2015-Jan-26 11:31N 29°45' W 095°07'0 0.0
2015-Jan-26 10:26N 29°45' W 095°07'0 0.0
2015-Jan-26 09:32N 29°45' W 095°07'0 0.0
2015-Jan-26 08:32N 29°45' W 095°07'0 0.0
2015-Jan-26 07:32N 29°45' W 095°07'0 0.0
2015-Jan-26 06:32N 29°45' W 095°07'0 0.0
2015-Jan-26 05:32N 29°45' W 095°07'0 0.0
2015-Jan-26 04:32N 29°45' W 095°07'0 0.0
2015-Jan-26 03:27N 29°45' W 095°07'0 0.0
2015-Jan-26 02:33N 29°45' W 095°07'0 0.0
2015-Jan-26 01:33N 29°45' W 095°07'0 0.0
2015-Jan-26 00:33N 29°45' W 095°07'0 0.0
2015-Jan-25 23:31N 29°45' W 095°07'0 0.0
2015-Jan-25 22:31N 29°45' W 095°07'0 0.0
2015-Jan-25 21:28N 29°45' W 095°07'0 0.0
2015-Jan-25 20:31N 29°45' W 095°07'0 0.0
2015-Jan-25 19:28N 29°45' W 095°07'0 0.0
2015-Jan-25 18:32N 29°45' W 095°07'0 0.0
2015-Jan-25 17:32N 29°45' W 095°07'0 0.0
2015-Jan-25 16:32N 29°45' W 095°07'0 0.0
2015-Jan-25 15:21N 29°45' W 095°07'0 0.0
2015-Jan-25 14:33N 29°45' W 095°07'0 0.0
2015-Jan-25 13:33N 29°45' W 095°07'0 0.0
2015-Jan-25 12:33N 29°45' W 095°07'0 0.0
2015-Jan-25 11:33N 29°45' W 095°07'0 0.0
2015-Jan-25 10:33N 29°45' W 095°07'0 0.0
2015-Jan-25 09:33N 29°45' W 095°07'0 0.0
2015-Jan-25 08:30N 29°45' W 095°07'0 0.0
2015-Jan-25 07:24N 29°45' W 095°07'0 0.0
2015-Jan-25 06:33N 29°45' W 095°07'0 0.0
2015-Jan-25 05:27N 29°45' W 095°07'0 0.0
2015-Jan-25 04:15N 29°45' W 095°07'0 0.0
2015-Jan-25 03:33N 29°45' W 095°07'0 0.0
2015-Jan-25 02:33N 29°45' W 095°07'0 0.0
2015-Jan-25 01:27N 29°45' W 095°07'0 0.0
2015-Jan-25 00:33N 29°45' W 095°07'0 0.0
2015-Jan-24 23:33N 29°45' W 095°07'0 0.0
2015-Jan-24 22:33N 29°45' W 095°07'0 0.0
2015-Jan-24 21:33N 29°45' W 095°07'0 0.0
2015-Jan-24 20:33N 29°45' W 095°07'0 0.0
2015-Jan-24 19:31N 29°45' W 095°07'0 0.0
2015-Jan-24 18:28N 29°45' W 095°07'0 0.0
2015-Jan-24 17:30N 29°45' W 095°07'0 0.0
2015-Jan-24 16:30N 29°45' W 095°07'0 0.0
2015-Jan-24 15:27N 29°45' W 095°07'0 0.0
2015-Jan-24 14:33N 29°45' W 095°07'0 0.0
2015-Jan-24 13:33N 29°45' W 095°07'0 0.0
2015-Jan-24 12:32N 29°45' W 095°07'0 0.0
2015-Jan-24 11:32N 29°45' W 095°07'0 0.0
2015-Jan-24 10:32N 29°45' W 095°07'0 0.0
2015-Jan-24 09:19N 29°45' W 095°07'0 0.0
2015-Jan-24 08:31N 29°45' W 095°07'0 0.0
2015-Jan-24 07:34N 29°45' W 095°07'0 0.0
2015-Jan-24 06:33N 29°45' W 095°07'0 0.0
2015-Jan-24 05:33N 29°45' W 095°07'0 0.0
2015-Jan-24 04:31N 29°45' W 095°07'0 0.0
2015-Jan-24 03:31N 29°45' W 095°07'0 0.0
2015-Jan-24 02:31N 29°45' W 095°07'0 0.0
2015-Jan-24 01:31N 29°45' W 095°07'0 0.0
2015-Jan-24 00:31N 29°45' W 095°07'0 0.0
2015-Jan-23 23:28N 29°45' W 095°07'0 0.0
2015-Jan-23 22:32N 29°45' W 095°07'0 0.0
2015-Jan-23 21:32N 29°45' W 095°07'0 0.0
2015-Jan-23 20:32N 29°45' W 095°07'0 0.0
2015-Jan-23 19:25N 29°45' W 095°07'0 0.0
2015-Jan-23 18:31N 29°45' W 095°07'0 0.0
2015-Jan-23 17:25N 29°45' W 095°07'0 0.0
2015-Jan-23 16:31N 29°45' W 095°07'0 0.0
2015-Jan-23 15:31N 29°45' W 095°07'0 0.0
2015-Jan-23 14:33N 29°45' W 095°07'0 0.0
2015-Jan-23 13:33N 29°45' W 095°07'0 0.0
2015-Jan-23 12:33N 29°45' W 095°07'0 0.0
2015-Jan-23 11:33N 29°45' W 095°07'0 0.0
2015-Jan-23 10:31N 29°45' W 095°07'0 0.0
2015-Jan-23 09:31N 29°45' W 095°07'0 0.0
2015-Jan-23 08:28N 29°45' W 095°07'0 0.0
2015-Jan-23 07:25N 29°45' W 095°07'0 0.0
2015-Jan-23 06:31N 29°45' W 095°07'0 0.0
2015-Jan-23 05:32N 29°45' W 095°07'0 0.0
2015-Jan-23 04:32N 29°45' W 095°07'0 0.0
2015-Jan-23 03:32N 29°45' W 095°07'0 0.0
2015-Jan-23 02:26N 29°45' W 095°07'1 0.6
2015-Jan-23 01:33N 29°45' W 095°06'7 6.7
2015-Jan-23 00:33N 29°41' W 094°59'1211.5
2015-Jan-22 23:33N 29°31' W 094°53'1312.1
2015-Jan-22 22:29N 29°21' W 094°45'13 1.2
2015-Jan-22 11:24N 29°17' W 094°31'  

Dump ship's entire track history